sensor_id;sensor_type;location;lat;lon;timestamp;pressure;altitude;pressure_sealevel;temperature;humidity
10940;BME280;5522;42.696;23.494;2022-08-26T00:00:27;53885.97;;;-139.68;100.00
10940;BME280;5522;42.696;23.494;2022-08-26T00:02:54;53859.84;;;-139.68;100.00
10940;BME280;5522;42.696;23.494;2022-08-26T00:05:21;53843.75;;;-139.68;100.00
10940;BME280;5522;42.696;23.494;2022-08-26T00:07:48;53835.72;;;-139.68;100.00
10940;BME280;5522;42.696;23.494;2022-08-26T00:10:15;53881.97;;;-139.68;100.00
10940;BME280;5522;42.696;23.494;2022-08-26T00:12:42;53863.88;;;-139.68;100.00
10940;BME280;5522;42.696;23.494;2022-08-26T00:15:12;53831.69;;;-139.68;100.00
10940;BME280;5522;42.696;23.494;2022-08-26T00:17:40;53881.97;;;-139.68;100.00
10940;BME280;5522;42.696;23.494;2022-08-26T00:22:44;53871.91;;;-139.68;100.00
10940;BME280;5522;42.696;23.494;2022-08-26T00:25:12;53879.94;;;-139.68;100.00
10940;BME280;5522;42.696;23.494;2022-08-26T00:27:40;53861.84;;;-139.68;100.00
10940;BME280;5522;42.696;23.494;2022-08-26T00:30:13;53821.66;;;-139.68;100.00
10940;BME280;5522;42.696;23.494;2022-08-26T00:32:40;53865.88;;;-139.68;100.00
10940;BME280;5522;42.696;23.494;2022-08-26T00:35:08;53881.97;;;-139.68;100.00
10940;BME280;5522;42.696;23.494;2022-08-26T00:37:36;53847.78;;;-139.68;100.00
10940;BME280;5522;42.696;23.494;2022-08-26T00:40:05;53855.81;;;-139.68;100.00
10940;BME280;5522;42.696;23.494;2022-08-26T00:42:32;53890.00;;;-139.68;100.00
10940;BME280;5522;42.696;23.494;2022-08-26T00:44:59;53847.78;;;-139.68;100.00
10940;BME280;5522;42.696;23.494;2022-08-26T00:47:32;53871.91;;;-139.68;100.00
10940;BME280;5522;42.696;23.494;2022-08-26T00:50:04;53835.72;;;-139.68;100.00
10940;BME280;5522;42.696;23.494;2022-08-26T00:52:32;53865.88;;;-139.68;100.00
10940;BME280;5522;42.696;23.494;2022-08-26T00:55:03;53849.78;;;-139.68;100.00
10940;BME280;5522;42.696;23.494;2022-08-26T00:57:32;53851.81;;;-139.68;100.00
10940;BME280;5522;42.696;23.494;2022-08-26T01:07:41;53847.78;;;-139.68;100.00
10940;BME280;5522;42.696;23.494;2022-08-26T01:10:11;53867.88;;;-139.68;100.00
10940;BME280;5522;42.696;23.494;2022-08-26T01:12:43;53851.81;;;-139.68;100.00
10940;BME280;5522;42.696;23.494;2022-08-26T01:15:15;53851.81;;;-139.68;100.00
10940;BME280;5522;42.696;23.494;2022-08-26T01:17:42;53865.88;;;-139.68;100.00
10940;BME280;5522;42.696;23.494;2022-08-26T01:20:18;53845.78;;;-139.68;100.00
10940;BME280;5522;42.696;23.494;2022-08-26T01:22:54;53875.94;;;-139.68;100.00
10940;BME280;5522;42.696;23.494;2022-08-26T01:25:22;53912.13;;;-139.68;100.00
10940;BME280;5522;42.696;23.494;2022-08-26T01:27:51;53843.75;;;-139.68;100.00
10940;BME280;5522;42.696;23.494;2022-08-26T01:30:19;53855.81;;;-139.68;100.00
10940;BME280;5522;42.696;23.494;2022-08-26T01:32:48;53892.00;;;-139.68;100.00
10940;BME280;5522;42.696;23.494;2022-08-26T01:35:15;53875.94;;;-139.68;100.00
10940;BME280;5522;42.696;23.494;2022-08-26T01:37:42;53855.81;;;-139.68;100.00
10940;BME280;5522;42.696;23.494;2022-08-26T01:40:15;53861.84;;;-139.68;100.00
10940;BME280;5522;42.696;23.494;2022-08-26T01:42:44;53892.00;;;-139.68;100.00
10940;BME280;5522;42.696;23.494;2022-08-26T01:45:16;53867.88;;;-139.68;100.00
10940;BME280;5522;42.696;23.494;2022-08-26T01:47:45;53845.78;;;-139.68;100.00
10940;BME280;5522;42.696;23.494;2022-08-26T01:50:16;53896.03;;;-139.68;100.00
10940;BME280;5522;42.696;23.494;2022-08-26T01:52:45;53867.88;;;-139.68;100.00
10940;BME280;5522;42.696;23.494;2022-08-26T01:55:16;53859.84;;;-139.68;100.00
10940;BME280;5522;42.696;23.494;2022-08-26T01:57:45;53849.78;;;-139.68;100.00
10940;BME280;5522;42.696;23.494;2022-08-26T02:00:13;53888.00;;;-139.68;100.00
10940;BME280;5522;42.696;23.494;2022-08-26T02:02:42;53833.72;;;-139.68;100.00
10940;BME280;5522;42.696;23.494;2022-08-26T02:05:13;53855.81;;;-139.68;100.00
10940;BME280;5522;42.696;23.494;2022-08-26T02:07:42;53855.81;;;-139.68;100.00
10940;BME280;5522;42.696;23.494;2022-08-26T02:10:10;53871.91;;;-139.68;100.00
10940;BME280;5522;42.696;23.494;2022-08-26T02:12:39;53839.75;;;-139.68;100.00
10940;BME280;5522;42.696;23.494;2022-08-26T02:15:08;53892.00;;;-139.68;100.00
10940;BME280;5522;42.696;23.494;2022-08-26T02:17:38;53833.72;;;-139.68;100.00
10940;BME280;5522;42.696;23.494;2022-08-26T02:20:09;53839.75;;;-139.68;100.00
10940;BME280;5522;42.696;23.494;2022-08-26T02:22:39;53839.75;;;-139.68;100.00
10940;BME280;5522;42.696;23.494;2022-08-26T02:25:10;53867.88;;;-139.68;100.00
10940;BME280;5522;42.696;23.494;2022-08-26T02:27:40;53892.00;;;-139.68;100.00
10940;BME280;5522;42.696;23.494;2022-08-26T02:30:10;53912.13;;;-139.68;100.00
10940;BME280;5522;42.696;23.494;2022-08-26T02:32:38;53888.00;;;-139.68;100.00
10940;BME280;5522;42.696;23.494;2022-08-26T02:35:06;53871.91;;;-139.68;100.00
10940;BME280;5522;42.696;23.494;2022-08-26T02:37:33;53879.94;;;-139.68;100.00
10940;BME280;5522;42.696;23.494;2022-08-26T02:40:00;53831.69;;;-139.68;100.00
10940;BME280;5522;42.696;23.494;2022-08-26T02:42:27;53851.81;;;-139.68;100.00
10940;BME280;5522;42.696;23.494;2022-08-26T02:44:55;53853.81;;;-139.68;100.00
10940;BME280;5522;42.696;23.494;2022-08-26T02:47:22;53843.75;;;-139.68;100.00
10940;BME280;5522;42.696;23.494;2022-08-26T02:49:50;53853.81;;;-139.68;100.00
10940;BME280;5522;42.696;23.494;2022-08-26T02:52:17;53873.91;;;-139.68;100.00
10940;BME280;5522;42.696;23.494;2022-08-26T02:54:44;53892.00;;;-139.68;100.00
10940;BME280;5522;42.696;23.494;2022-08-26T02:57:11;53827.69;;;-139.68;100.00
10940;BME280;5522;42.696;23.494;2022-08-26T02:59:38;53863.88;;;-139.68;100.00
10940;BME280;5522;42.696;23.494;2022-08-26T03:02:06;53890.00;;;-139.68;100.00
10940;BME280;5522;42.696;23.494;2022-08-26T03:04:35;53871.91;;;-139.68;100.00
10940;BME280;5522;42.696;23.494;2022-08-26T03:07:02;53908.09;;;-139.68;100.00
10940;BME280;5522;42.696;23.494;2022-08-26T03:09:29;53912.13;;;-139.68;100.00
10940;BME280;5522;42.696;23.494;2022-08-26T03:11:56;53869.91;;;-139.68;100.00
10940;BME280;5522;42.696;23.494;2022-08-26T03:14:24;53885.97;;;-139.68;100.00
10940;BME280;5522;42.696;23.494;2022-08-26T03:16:52;53883.97;;;-139.68;100.00
10940;BME280;5522;42.696;23.494;2022-08-26T03:19:21;53920.16;;;-139.68;100.00
10940;BME280;5522;42.696;23.494;2022-08-26T03:21:49;53863.88;;;-139.68;100.00
10940;BME280;5522;42.696;23.494;2022-08-26T03:24:16;53888.00;;;-139.68;100.00
10940;BME280;5522;42.696;23.494;2022-08-26T03:26:43;53892.00;;;-139.68;100.00
10940;BME280;5522;42.696;23.494;2022-08-26T03:29:11;53831.69;;;-139.68;100.00
10940;BME280;5522;42.696;23.494;2022-08-26T03:31:55;53892.00;;;-139.68;100.00
10940;BME280;5522;42.696;23.494;2022-08-26T03:34:23;53861.84;;;-139.68;100.00
10940;BME280;5522;42.696;23.494;2022-08-26T03:36:50;53908.09;;;-139.68;100.00
10940;BME280;5522;42.696;23.494;2022-08-26T03:39:17;53896.03;;;-139.68;100.00
10940;BME280;5522;42.696;23.494;2022-08-26T03:41:44;53853.81;;;-139.68;100.00
10940;BME280;5522;42.696;23.494;2022-08-26T03:44:12;53823.66;;;-139.68;100.00
10940;BME280;5522;42.696;23.494;2022-08-26T03:46:39;53855.81;;;-139.68;100.00
10940;BME280;5522;42.696;23.494;2022-08-26T03:49:06;53875.94;;;-139.68;100.00
10940;BME280;5522;42.696;23.494;2022-08-26T03:51:36;53853.81;;;-139.68;100.00
10940;BME280;5522;42.696;23.494;2022-08-26T03:54:03;53879.94;;;-139.68;100.00
10940;BME280;5522;42.696;23.494;2022-08-26T03:56:31;53833.72;;;-139.68;100.00
10940;BME280;5522;42.696;23.494;2022-08-26T03:58:58;53875.94;;;-139.68;100.00
10940;BME280;5522;42.696;23.494;2022-08-26T04:01:25;53843.75;;;-139.68;100.00
10940;BME280;5522;42.696;23.494;2022-08-26T04:03:53;53877.94;;;-139.68;100.00
10940;BME280;5522;42.696;23.494;2022-08-26T04:06:28;53869.91;;;-139.68;100.00
10940;BME280;5522;42.696;23.494;2022-08-26T04:08:59;53859.84;;;-139.68;100.00
10940;BME280;5522;42.696;23.494;2022-08-26T04:11:28;53847.78;;;-139.68;100.00
10940;BME280;5522;42.696;23.494;2022-08-26T04:13:56;53863.88;;;-139.68;100.00
10940;BME280;5522;42.696;23.494;2022-08-26T04:16:26;53869.91;;;-139.68;100.00
10940;BME280;5522;42.696;23.494;2022-08-26T04:18:53;53855.81;;;-139.68;100.00
10940;BME280;5522;42.696;23.494;2022-08-26T04:21:20;53906.06;;;-139.68;100.00
10940;BME280;5522;42.696;23.494;2022-08-26T04:23:47;53904.06;;;-139.68;100.00
10940;BME280;5522;42.696;23.494;2022-08-26T04:26:16;53934.22;;;-139.68;100.00
10940;BME280;5522;42.696;23.494;2022-08-26T04:28:44;53841.75;;;-139.68;100.00
10940;BME280;5522;42.696;23.494;2022-08-26T04:31:11;53875.94;;;-139.68;100.00
10940;BME280;5522;42.696;23.494;2022-08-26T04:33:39;53871.91;;;-139.68;100.00
10940;BME280;5522;42.696;23.494;2022-08-26T04:36:06;53831.69;;;-139.68;100.00
10940;BME280;5522;42.696;23.494;2022-08-26T04:38:33;53875.94;;;-139.68;100.00
10940;BME280;5522;42.696;23.494;2022-08-26T04:41:00;53912.13;;;-139.68;100.00
10940;BME280;5522;42.696;23.494;2022-08-26T04:43:29;53853.81;;;-139.68;100.00
10940;BME280;5522;42.696;23.494;2022-08-26T04:45:57;53900.06;;;-139.68;100.00
10940;BME280;5522;42.696;23.494;2022-08-26T04:48:27;53843.75;;;-139.68;100.00
10940;BME280;5522;42.696;23.494;2022-08-26T04:50:54;53904.06;;;-139.68;100.00
10940;BME280;5522;42.696;23.494;2022-08-26T04:53:21;53888.00;;;-139.68;100.00
10940;BME280;5522;42.696;23.494;2022-08-26T04:55:48;53912.13;;;-139.68;100.00
10940;BME280;5522;42.696;23.494;2022-08-26T04:58:15;53877.94;;;-139.68;100.00
10940;BME280;5522;42.696;23.494;2022-08-26T05:00:44;53867.88;;;-139.68;100.00
10940;BME280;5522;42.696;23.494;2022-08-26T05:03:12;53869.91;;;-139.68;100.00
10940;BME280;5522;42.696;23.494;2022-08-26T05:05:39;53900.06;;;-139.68;100.00
10940;BME280;5522;42.696;23.494;2022-08-26T05:08:07;53916.13;;;-139.68;100.00
10940;BME280;5522;42.696;23.494;2022-08-26T05:10:38;53879.94;;;-139.68;100.00
10940;BME280;5522;42.696;23.494;2022-08-26T05:13:05;53879.94;;;-139.68;100.00
10940;BME280;5522;42.696;23.494;2022-08-26T05:15:33;53904.06;;;-139.68;100.00
10940;BME280;5522;42.696;23.494;2022-08-26T05:18:02;53883.97;;;-139.68;100.00
10940;BME280;5522;42.696;23.494;2022-08-26T05:20:29;53881.97;;;-139.68;100.00
10940;BME280;5522;42.696;23.494;2022-08-26T05:22:57;53892.00;;;-139.68;100.00
10940;BME280;5522;42.696;23.494;2022-08-26T05:25:25;53865.88;;;-139.68;100.00
10940;BME280;5522;42.696;23.494;2022-08-26T05:27:51;53883.97;;;-139.68;100.00
10940;BME280;5522;42.696;23.494;2022-08-26T05:30:18;53881.97;;;-139.68;100.00
10940;BME280;5522;42.696;23.494;2022-08-26T05:32:46;53879.94;;;-139.68;100.00
10940;BME280;5522;42.696;23.494;2022-08-26T05:35:15;53875.94;;;-139.68;100.00
10940;BME280;5522;42.696;23.494;2022-08-26T05:37:42;53863.88;;;-139.68;100.00
10940;BME280;5522;42.696;23.494;2022-08-26T05:40:09;53910.09;;;-139.68;100.00
10940;BME280;5522;42.696;23.494;2022-08-26T05:42:36;53847.78;;;-139.68;100.00
10940;BME280;5522;42.696;23.494;2022-08-26T05:45:03;53865.88;;;-139.68;100.00
10940;BME280;5522;42.696;23.494;2022-08-26T05:47:30;53859.84;;;-139.68;100.00
10940;BME280;5522;42.696;23.494;2022-08-26T05:49:57;53863.88;;;-139.68;100.00
10940;BME280;5522;42.696;23.494;2022-08-26T05:52:26;53892.00;;;-139.68;100.00
10940;BME280;5522;42.696;23.494;2022-08-26T05:54:53;53843.75;;;-139.68;100.00
10940;BME280;5522;42.696;23.494;2022-08-26T05:57:19;53865.88;;;-139.68;100.00
10940;BME280;5522;42.696;23.494;2022-08-26T05:59:46;53839.75;;;-139.68;100.00
10940;BME280;5522;42.696;23.494;2022-08-26T06:02:13;53847.78;;;-139.68;100.00
10940;BME280;5522;42.696;23.494;2022-08-26T06:04:40;53829.69;;;-139.68;100.00
10940;BME280;5522;42.696;23.494;2022-08-26T06:07:07;53867.88;;;-139.68;100.00
10940;BME280;5522;42.696;23.494;2022-08-26T06:09:36;53871.91;;;-139.68;100.00
10940;BME280;5522;42.696;23.494;2022-08-26T06:12:03;53869.91;;;-139.68;100.00
10940;BME280;5522;42.696;23.494;2022-08-26T06:14:31;53908.09;;;-139.68;100.00
10940;BME280;5522;42.696;23.494;2022-08-26T06:16:57;53867.88;;;-139.68;100.00
10940;BME280;5522;42.696;23.494;2022-08-26T06:19:25;53883.97;;;-139.68;100.00
10940;BME280;5522;42.696;23.494;2022-08-26T06:21:52;53837.72;;;-139.68;100.00
10940;BME280;5522;42.696;23.494;2022-08-26T06:24:19;53885.97;;;-139.68;100.00
10940;BME280;5522;42.696;23.494;2022-08-26T06:27:05;53867.88;;;-139.68;100.00
10940;BME280;5522;42.696;23.494;2022-08-26T06:29:34;53847.78;;;-139.68;100.00
10940;BME280;5522;42.696;23.494;2022-08-26T06:32:03;53859.84;;;-139.68;100.00
10940;BME280;5522;42.696;23.494;2022-08-26T06:34:30;53853.81;;;-139.68;100.00
10940;BME280;5522;42.696;23.494;2022-08-26T06:36:58;53879.94;;;-139.68;100.00
10940;BME280;5522;42.696;23.494;2022-08-26T06:39:29;53859.84;;;-139.68;100.00
10940;BME280;5522;42.696;23.494;2022-08-26T06:41:59;53890.00;;;-139.68;100.00
10940;BME280;5522;42.696;23.494;2022-08-26T06:44:31;53892.00;;;-139.68;100.00
10940;BME280;5522;42.696;23.494;2022-08-26T06:47:06;53827.69;;;-139.68;100.00
10940;BME280;5522;42.696;23.494;2022-08-26T06:49:37;53892.00;;;-139.68;100.00
10940;BME280;5522;42.696;23.494;2022-08-26T06:52:05;53869.91;;;-139.68;100.00
10940;BME280;5522;42.696;23.494;2022-08-26T06:54:32;53867.88;;;-139.68;100.00
10940;BME280;5522;42.696;23.494;2022-08-26T06:56:59;53873.91;;;-139.68;100.00
10940;BME280;5522;42.696;23.494;2022-08-26T06:59:26;53877.94;;;-139.68;100.00
10940;BME280;5522;42.696;23.494;2022-08-26T07:01:54;53843.75;;;-139.68;100.00
10940;BME280;5522;42.696;23.494;2022-08-26T07:04:21;53888.00;;;-139.68;100.00
10940;BME280;5522;42.696;23.494;2022-08-26T07:06:50;53912.13;;;-139.68;100.00
10940;BME280;5522;42.696;23.494;2022-08-26T07:09:18;53877.94;;;-139.68;100.00
10940;BME280;5522;42.696;23.494;2022-08-26T07:11:45;53855.81;;;-139.68;100.00
10940;BME280;5522;42.696;23.494;2022-08-26T07:14:12;53908.09;;;-139.68;100.00
10940;BME280;5522;42.696;23.494;2022-08-26T07:16:39;53888.00;;;-139.68;100.00
10940;BME280;5522;42.696;23.494;2022-08-26T07:19:08;53859.84;;;-139.68;100.00
10940;BME280;5522;42.696;23.494;2022-08-26T07:21:35;53916.13;;;-139.68;100.00
10940;BME280;5522;42.696;23.494;2022-08-26T07:24:02;53851.81;;;-139.68;100.00
10940;BME280;5522;42.696;23.494;2022-08-26T07:26:29;53861.84;;;-139.68;100.00
10940;BME280;5522;42.696;23.494;2022-08-26T07:28:58;53924.16;;;-139.68;100.00
10940;BME280;5522;42.696;23.494;2022-08-26T07:31:27;53871.91;;;-139.68;100.00
10940;BME280;5522;42.696;23.494;2022-08-26T07:33:54;53928.19;;;-139.68;100.00
10940;BME280;5522;42.696;23.494;2022-08-26T07:36:23;53879.94;;;-139.68;100.00
10940;BME280;5522;42.696;23.494;2022-08-26T07:38:51;53914.13;;;-139.68;100.00
10940;BME280;5522;42.696;23.494;2022-08-26T07:41:19;53883.97;;;-139.68;94.53
10940;BME280;5522;42.696;23.494;2022-08-26T07:43:47;53883.97;;;-139.68;87.76
10940;BME280;5522;42.696;23.494;2022-08-26T07:46:14;53892.00;;;-139.68;83.53
10940;BME280;5522;42.696;23.494;2022-08-26T07:48:45;53883.97;;;-139.68;86.22
10940;BME280;5522;42.696;23.494;2022-08-26T07:51:12;53888.00;;;-139.68;76.33
10940;BME280;5522;42.696;23.494;2022-08-26T07:53:42;53898.03;;;-139.68;68.49
10940;BME280;5522;42.696;23.494;2022-08-26T07:56:09;53904.06;;;-139.68;58.94
10940;BME280;5522;42.696;23.494;2022-08-26T07:58:36;53904.06;;;-139.68;61.30
10940;BME280;5522;42.696;23.494;2022-08-26T08:01:03;53900.06;;;-139.68;63.61
10940;BME280;5522;42.696;23.494;2022-08-26T08:03:30;53918.16;;;-139.68;62.87
10940;BME280;5522;42.696;23.494;2022-08-26T08:05:57;53932.22;;;-139.68;65.34
10940;BME280;5522;42.696;23.494;2022-08-26T08:08:23;53952.31;;;-139.68;70.56
10940;BME280;5522;42.696;23.494;2022-08-26T08:10:53;53908.09;;;-139.68;75.55
10940;BME280;5522;42.696;23.494;2022-08-26T08:13:20;53910.09;;;-139.68;73.39
10940;BME280;5522;42.696;23.494;2022-08-26T08:15:47;53896.03;;;-139.68;72.32
10940;BME280;5522;42.696;23.494;2022-08-26T08:18:13;53936.22;;;-139.68;72.88
10940;BME280;5522;42.696;23.494;2022-08-26T08:20:40;53914.13;;;-139.68;71.21
10940;BME280;5522;42.696;23.494;2022-08-26T08:23:07;53908.09;;;-139.68;68.31
10940;BME280;5522;42.696;23.494;2022-08-26T08:25:34;53904.06;;;-139.68;65.64
10940;BME280;5522;42.696;23.494;2022-08-26T08:28:03;53863.88;;;-139.68;53.55
10940;BME280;5522;42.696;23.494;2022-08-26T08:30:29;53900.06;;;-139.68;49.94
10940;BME280;5522;42.696;23.494;2022-08-26T08:32:56;53904.06;;;-139.68;40.01
10940;BME280;5522;42.696;23.494;2022-08-26T08:35:23;53883.97;;;-139.68;35.18
10940;BME280;5522;42.696;23.494;2022-08-26T08:37:52;53908.09;;;-139.68;37.30
10940;BME280;5522;42.696;23.494;2022-08-26T08:40:21;53879.94;;;-139.68;35.49
10940;BME280;5522;42.696;23.494;2022-08-26T08:42:56;53888.00;;;-139.68;34.57
10940;BME280;5522;42.696;23.494;2022-08-26T08:45:30;53892.00;;;-139.68;32.80
10940;BME280;5522;42.696;23.494;2022-08-26T08:48:00;53896.03;;;-139.68;31.71
10940;BME280;5522;42.696;23.494;2022-08-26T08:50:30;53869.91;;;-139.68;28.60
10940;BME280;5522;42.696;23.494;2022-08-26T08:53:09;53892.00;;;-139.68;27.58
10940;BME280;5522;42.696;23.494;2022-08-26T08:55:47;53888.00;;;-139.68;28.69
10940;BME280;5522;42.696;23.494;2022-08-26T08:58:18;53879.94;;;-139.68;28.26
10940;BME280;5522;42.696;23.494;2022-08-26T09:00:50;53904.06;;;-139.68;29.46
10940;BME280;5522;42.696;23.494;2022-08-26T09:03:30;53892.00;;;-139.68;27.13
10940;BME280;5522;42.696;23.494;2022-08-26T09:06:00;53855.81;;;-139.68;26.92
10940;BME280;5522;42.696;23.494;2022-08-26T09:08:31;53851.81;;;-139.68;25.96
10940;BME280;5522;42.696;23.494;2022-08-26T09:11:02;53835.72;;;-139.68;24.00
10940;BME280;5522;42.696;23.494;2022-08-26T09:13:29;53831.69;;;-139.68;23.78
10940;BME280;5522;42.696;23.494;2022-08-26T09:16:03;53871.91;;;-139.68;22.29
10940;BME280;5522;42.696;23.494;2022-08-26T09:18:41;53892.00;;;-139.68;24.21
10940;BME280;5522;42.696;23.494;2022-08-26T09:21:16;53918.16;;;-139.68;25.13
10940;BME280;5522;42.696;23.494;2022-08-26T09:23:43;53924.16;;;-139.68;26.95
10940;BME280;5522;42.696;23.494;2022-08-26T09:26:16;53940.25;;;-139.68;26.56
10940;BME280;5522;42.696;23.494;2022-08-26T09:28:46;53926.19;;;-139.68;28.16
10940;BME280;5522;42.696;23.494;2022-08-26T09:31:20;53936.22;;;-139.68;26.80
10940;BME280;5522;42.696;23.494;2022-08-26T09:34:04;53918.16;;;-139.68;28.58
10940;BME280;5522;42.696;23.494;2022-08-26T09:36:36;53930.22;;;-139.68;27.04
10940;BME280;5522;42.696;23.494;2022-08-26T09:39:04;53914.13;;;-139.68;29.98
10940;BME280;5522;42.696;23.494;2022-08-26T09:41:32;53952.31;;;-139.68;26.56
10940;BME280;5522;42.696;23.494;2022-08-26T09:44:08;53912.13;;;-139.68;27.25
10940;BME280;5522;42.696;23.494;2022-08-26T09:46:40;53930.22;;;-139.68;27.71
10940;BME280;5522;42.696;23.494;2022-08-26T09:49:29;53956.34;;;-139.68;28.16
10940;BME280;5522;42.696;23.494;2022-08-26T09:52:07;53932.22;;;-139.68;27.46
10940;BME280;5522;42.696;23.494;2022-08-26T09:54:35;53926.19;;;-139.68;26.95
10940;BME280;5522;42.696;23.494;2022-08-26T09:57:17;53910.09;;;-139.68;27.69
10940;BME280;5522;42.696;23.494;2022-08-26T09:59:45;53928.19;;;-139.68;27.63
10940;BME280;5522;42.696;23.494;2022-08-26T10:02:26;53896.03;;;-139.68;27.96
10940;BME280;5522;42.696;23.494;2022-08-26T10:04:56;53936.22;;;-139.68;30.55
10940;BME280;5522;42.696;23.494;2022-08-26T10:07:42;53952.31;;;-139.68;31.40
10940;BME280;5522;42.696;23.494;2022-08-26T10:10:13;53956.34;;;-139.68;30.94
10940;BME280;5522;42.696;23.494;2022-08-26T10:12:57;53936.22;;;-139.68;32.71
10940;BME280;5522;42.696;23.494;2022-08-26T10:15:37;53952.31;;;-139.68;30.24
10940;BME280;5522;42.696;23.494;2022-08-26T10:18:12;53922.16;;;-139.68;30.47
10940;BME280;5522;42.696;23.494;2022-08-26T10:20:48;53932.22;;;-139.68;31.18
10940;BME280;5522;42.696;23.494;2022-08-26T10:23:20;53944.28;;;-139.68;31.63
10940;BME280;5522;42.696;23.494;2022-08-26T10:25:52;53906.06;;;-139.68;31.32
10940;BME280;5522;42.696;23.494;2022-08-26T10:28:26;53904.06;;;-139.68;31.22
10940;BME280;5522;42.696;23.494;2022-08-26T10:30:59;53954.31;;;-139.68;30.42
10940;BME280;5522;42.696;23.494;2022-08-26T10:33:30;53906.06;;;-139.68;28.29
10940;BME280;5522;42.696;23.494;2022-08-26T10:35:59;53924.16;;;-139.68;29.15
10940;BME280;5522;42.696;23.494;2022-08-26T10:38:35;53918.16;;;-139.68;30.07
10940;BME280;5522;42.696;23.494;2022-08-26T10:41:06;53948.31;;;-139.68;29.98
10940;BME280;5522;42.696;23.494;2022-08-26T10:43:36;53948.31;;;-139.68;29.30
10940;BME280;5522;42.696;23.494;2022-08-26T10:46:09;53920.16;;;-139.68;31.55
10940;BME280;5522;42.696;23.494;2022-08-26T10:48:44;53908.09;;;-139.68;32.13
10940;BME280;5522;42.696;23.494;2022-08-26T10:51:14;53908.09;;;-139.68;30.03
10940;BME280;5522;42.696;23.494;2022-08-26T10:53:47;53892.00;;;-139.68;29.42
10940;BME280;5522;42.696;23.494;2022-08-26T10:56:26;53920.16;;;-139.68;32.08
10940;BME280;5522;42.696;23.494;2022-08-26T10:59:03;53954.31;;;-139.68;29.79
10940;BME280;5522;42.696;23.494;2022-08-26T11:01:38;53942.25;;;-139.68;29.73
10940;BME280;5522;42.696;23.494;2022-08-26T11:04:28;53940.25;;;-139.68;30.76
10940;BME280;5522;42.696;23.494;2022-08-26T11:07:34;53956.34;;;-139.68;31.78
10940;BME280;5522;42.696;23.494;2022-08-26T11:10:07;53932.22;;;-139.68;32.71
10940;BME280;5522;42.696;23.494;2022-08-26T11:12:55;53918.16;;;-139.68;31.64
10940;BME280;5522;42.696;23.494;2022-08-26T11:21:49;53936.22;;;-139.68;32.30
10940;BME280;5522;42.696;23.494;2022-08-26T11:24:38;53896.03;;;-139.68;33.53
10940;BME280;5522;42.696;23.494;2022-08-26T11:27:07;53934.22;;;-139.68;31.91
10940;BME280;5522;42.696;23.494;2022-08-26T11:29:57;53900.06;;;-139.68;32.64
10940;BME280;5522;42.696;23.494;2022-08-26T11:32:27;53936.22;;;-139.68;30.74
10940;BME280;5522;42.696;23.494;2022-08-26T11:35:12;53920.16;;;-139.68;31.34
10940;BME280;5522;42.696;23.494;2022-08-26T11:38:01;53922.16;;;-139.68;31.41
10940;BME280;5522;42.696;23.494;2022-08-26T11:40:31;53934.22;;;-139.68;31.32
10940;BME280;5522;42.696;23.494;2022-08-26T11:43:00;53912.13;;;-139.68;30.87
10940;BME280;5522;42.696;23.494;2022-08-26T11:45:33;53871.91;;;-139.68;31.05
10940;BME280;5522;42.696;23.494;2022-08-26T11:48:14;53900.06;;;-139.68;30.94
10940;BME280;5522;42.696;23.494;2022-08-26T11:50:51;53881.97;;;-139.68;30.31
10940;BME280;5522;42.696;23.494;2022-08-26T11:53:21;53892.00;;;-139.68;30.99
10940;BME280;5522;42.696;23.494;2022-08-26T11:55:49;53920.16;;;-139.68;30.18
10940;BME280;5522;42.696;23.494;2022-08-26T11:58:18;53922.16;;;-139.68;30.28
10940;BME280;5522;42.696;23.494;2022-08-26T12:00:49;53916.13;;;-139.68;29.15
10940;BME280;5522;42.696;23.494;2022-08-26T12:03:21;53892.00;;;-139.68;29.73
10940;BME280;5522;42.696;23.494;2022-08-26T12:05:50;53881.97;;;-139.68;30.17
10940;BME280;5522;42.696;23.494;2022-08-26T12:08:22;53867.88;;;-139.68;30.29
10940;BME280;5522;42.696;23.494;2022-08-26T12:11:00;53908.09;;;-139.68;29.51
10940;BME280;5522;42.696;23.494;2022-08-26T12:13:27;53883.97;;;-139.68;30.92
10940;BME280;5522;42.696;23.494;2022-08-26T12:15:56;53879.94;;;-139.68;32.30
10940;BME280;5522;42.696;23.494;2022-08-26T12:18:27;53888.00;;;-139.68;31.20
10940;BME280;5522;42.696;23.494;2022-08-26T12:20:57;53934.22;;;-139.68;30.23
10940;BME280;5522;42.696;23.494;2022-08-26T12:23:35;53928.19;;;-139.68;32.39
10940;BME280;5522;42.696;23.494;2022-08-26T12:26:07;53888.00;;;-139.68;33.66
10940;BME280;5522;42.696;23.494;2022-08-26T12:28:41;53857.84;;;-139.68;34.29
10940;BME280;5522;42.696;23.494;2022-08-26T12:31:08;53940.25;;;-139.68;30.28
10940;BME280;5522;42.696;23.494;2022-08-26T12:33:35;53906.06;;;-139.68;31.37
10940;BME280;5522;42.696;23.494;2022-08-26T12:36:03;53869.91;;;-139.68;32.17
10940;BME280;5522;42.696;23.494;2022-08-26T12:38:34;53920.16;;;-139.68;31.70
10940;BME280;5522;42.696;23.494;2022-08-26T12:41:02;53865.88;;;-139.68;32.04
10940;BME280;5522;42.696;23.494;2022-08-26T12:43:39;53871.91;;;-139.68;31.23
10940;BME280;5522;42.696;23.494;2022-08-26T12:46:08;53873.91;;;-139.68;30.02
10940;BME280;5522;42.696;23.494;2022-08-26T12:48:37;53888.00;;;-139.68;31.11
10940;BME280;5522;42.696;23.494;2022-08-26T12:51:22;53896.03;;;-139.68;31.98
10940;BME280;5522;42.696;23.494;2022-08-26T12:53:51;53916.13;;;-139.68;32.26
10940;BME280;5522;42.696;23.494;2022-08-26T12:56:29;53908.09;;;-139.68;30.72
10940;BME280;5522;42.696;23.494;2022-08-26T12:59:02;53910.09;;;-139.68;30.63
10940;BME280;5522;42.696;23.494;2022-08-26T13:01:36;53904.06;;;-139.68;31.98
10940;BME280;5522;42.696;23.494;2022-08-26T13:04:04;53873.91;;;-139.68;31.26